Time;durP1;ratioP1;P1;durP2;ratioP2;P2;SDS_P1;SDS_P2;PMS_P1;PMS_P2;Temp;Humidity;BMP_temperature;BMP_pressure;BME280_temperature;BME280_humidity;BME280_pressure;Samples;Min_cycle;Max_cycle;Signal;HPM_P1;HPM_P2
2022/09/02 00:01:15;;;;;;;8.38;4.72;;;18.90;96.40;;;;;;5051898;28;20033;-69
2022/09/02 00:03:42;;;;;;;5.43;4.38;;;18.90;96.50;;;;;;5050381;28;20032;-70
2022/09/02 00:06:09;;;;;;;9.40;4.82;;;18.90;96.50;;;;;;5048651;28;20032;-70
2022/09/02 00:08:35;;;;;;;9.23;4.35;;;18.90;96.60;;;;;;5045294;28;20029;-69
2022/09/02 00:11:05;;;;;;;7.13;4.22;;;18.90;97.10;;;;;;5049364;28;20025;-71
2022/09/02 00:13:33;;;;;;;8.82;3.67;;;18.80;96.90;;;;;;5034089;28;20400;-69
2022/09/02 00:15:58;;;;;;;6.97;3.92;;;18.80;97.10;;;;;;5033441;28;20090;-69
2022/09/02 00:18:25;;;;;;;4.20;2.78;;;18.80;97.70;;;;;;5048929;28;20024;-70
2022/09/02 00:20:51;;;;;;;6.95;3.53;;;18.70;97.10;;;;;;5055038;28;20032;-70
2022/09/02 00:23:16;;;;;;;4.95;3.58;;;18.70;96.80;;;;;;5054430;28;20025;-69
2022/09/02 00:25:43;;;;;;;6.30;2.95;;;18.60;96.60;;;;;;5052988;28;20033;-69
2022/09/02 00:28:10;;;;;;;4.85;2.50;;;18.60;97.10;;;;;;5048494;28;20052;-69
2022/09/02 00:30:36;;;;;;;6.05;4.00;;;18.60;97.20;;;;;;5045162;28;20389;-69
2022/09/02 00:33:02;;;;;;;4.80;3.28;;;18.50;97.30;;;;;;5052076;28;20055;-69
2022/09/02 00:35:29;;;;;;;4.50;3.03;;;18.50;97.40;;;;;;5033542;28;20059;-70
2022/09/02 00:37:54;;;;;;;7.00;3.20;;;18.50;97.30;;;;;;5045652;28;20470;-69
2022/09/02 00:40:22;;;;;;;6.10;3.30;;;18.50;97.50;;;;;;5045938;28;20051;-70
2022/09/02 00:42:49;;;;;;;13.27;4.15;;;18.50;97.70;;;;;;5053374;28;20112;-70
2022/09/02 00:45:17;;;;;;;9.05;3.35;;;18.40;97.80;;;;;;5037829;28;20493;-69
2022/09/02 00:47:44;;;;;;;4.85;3.10;;;18.40;97.70;;;;;;5032330;28;20119;-70
2022/09/02 00:50:12;;;;;;;6.55;3.60;;;18.40;97.90;;;;;;5047085;28;20017;-69
2022/09/02 00:52:43;;;;;;;4.18;3.28;;;18.40;98.10;;;;;;5052739;28;20025;-70
2022/09/02 00:55:35;;;;;;;6.60;3.65;;;18.30;98.60;;;;;;5050041;28;20112;-69
2022/09/02 00:58:12;;;;;;;6.03;2.97;;;18.30;98.50;;;;;;5054798;28;20033;-69
2022/09/02 01:00:44;;;;;;;3.92;3.08;;;18.30;98.50;;;;;;5054972;28;20028;-69
2022/09/02 01:03:18;;;;;;;6.22;2.97;;;18.20;98.90;;;;;;5040944;28;20552;-70
2022/09/02 01:05:47;;;;;;;6.30;3.30;;;18.20;98.50;;;;;;5043199;28;20028;-70
2022/09/02 01:08:16;;;;;;;3.83;3.35;;;18.20;98.60;;;;;;5027092;28;20070;-69
2022/09/02 01:10:42;;;;;;;4.38;2.83;;;18.10;98.70;;;;;;5045118;28;20108;-69
2022/09/02 01:13:11;;;;;;;4.30;2.90;;;18.10;98.60;;;;;;5023470;28;20472;-69
2022/09/02 01:15:43;;;;;;;4.97;3.10;;;18.00;99.10;;;;;;5041544;28;20040;-70
2022/09/02 01:18:12;;;;;;;5.40;3.00;;;18.00;98.70;;;;;;5045379;28;20049;-70
2022/09/02 01:20:38;;;;;;;8.55;3.35;;;18.00;99.80;;;;;;5045806;28;20052;-70
2022/09/02 01:23:03;;;;;;;5.50;3.17;;;18.00;98.90;;;;;;5048031;28;20052;-69
2022/09/02 01:25:33;;;;;;;4.38;2.75;;;18.00;98.90;;;;;;5048677;28;20375;-71
2022/09/02 01:28:01;;;;;;;5.43;3.33;;;17.90;99.10;;;;;;5047800;28;20036;-72
2022/09/02 01:30:28;;;;;;;7.13;3.30;;;17.90;98.80;;;;;;5048461;28;20041;-73
2022/09/02 01:32:54;;;;;;;4.63;3.03;;;17.90;99.40;;;;;;5049565;28;20176;-72
2022/09/02 01:35:20;;;;;;;5.70;3.35;;;17.80;99.40;;;;;;5046402;28;20048;-72
2022/09/02 01:37:47;;;;;;;5.43;2.90;;;17.80;99.10;;;;;;5048504;28;20021;-74
2022/09/02 01:40:16;;;;;;;5.70;3.45;;;17.80;99.20;;;;;;5054396;28;20037;-70
2022/09/02 01:42:43;;;;;;;5.68;3.15;;;17.80;99.50;;;;;;5049151;28;20524;-74
2022/09/02 01:45:10;;;;;;;4.63;2.80;;;17.70;98.90;;;;;;5049626;28;20041;-71
2022/09/02 01:47:36;;;;;;;5.40;2.95;;;17.70;99.30;;;;;;5048964;28;20039;-70
2022/09/02 01:50:04;;;;;;;3.45;2.97;;;17.60;99.60;;;;;;5056311;28;20029;-72
2022/09/02 01:52:30;;;;;;;3.72;3.25;;;17.60;99.80;;;;;;5055096;28;20013;-74
2022/09/02 01:54:56;;;;;;;8.00;2.97;;;17.60;99.90;;;;;;5037214;28;20036;-71
2022/09/02 01:57:23;;;;;;;4.07;3.10;;;17.60;99.90;;;;;;5052582;28;20111;-74
2022/09/02 01:59:50;;;;;;;7.68;2.90;;;17.60;99.40;;;;;;5036158;28;20036;-71
2022/09/02 02:02:18;;;;;;;5.35;3.33;;;17.60;99.80;;;;;;5049781;28;20159;-72
2022/09/02 02:04:46;;;;;;;3.08;2.72;;;17.60;99.80;;;;;;5050807;28;20036;-73
2022/09/02 02:07:14;;;;;;;7.15;3.13;;;17.50;99.90;;;;;;5054028;28;20025;-74
2022/09/02 02:09:41;;;;;;;5.20;3.28;;;17.50;99.70;;;;;;5049515;28;20390;-70
2022/09/02 02:12:08;;;;;;;6.28;3.30;;;17.50;99.90;;;;;;5036745;28;20166;-73
2022/09/02 02:14:35;;;;;;;6.88;3.47;;;17.40;99.70;;;;;;5052469;28;20092;-72
2022/09/02 02:17:00;;;;;;;3.40;3.10;;;17.40;99.90;;;;;;5053397;28;20456;-71
2022/09/02 02:19:27;;;;;;;5.55;3.17;;;17.40;99.90;;;;;;5052790;28;20093;-70
2022/09/02 02:21:53;;;;;;;7.20;3.72;;;17.40;99.80;;;;;;5049937;28;20021;-74
2022/09/02 02:24:18;;;;;;;5.80;3.85;;;17.40;99.90;;;;;;5053767;28;20023;-71
2022/09/02 02:26:44;;;;;;;4.80;3.00;;;17.40;99.90;;;;;;5048318;28;20500;-71
2022/09/02 02:29:11;;;;;;;4.03;3.42;;;17.40;99.70;;;;;;5050395;28;20025;-73
2022/09/02 02:31:37;;;;;;;8.10;3.30;;;17.30;99.90;;;;;;5051609;28;20440;-74
2022/09/02 02:34:03;;;;;;;6.07;3.65;;;17.30;99.90;;;;;;5037958;28;20017;-70
2022/09/02 02:36:29;;;;;;;3.80;3.22;;;17.30;99.90;;;;;;5053007;28;20041;-70
2022/09/02 02:38:56;;;;;;;7.60;2.95;;;17.20;99.90;;;;;;5053003;28;20092;-70
2022/09/02 02:41:21;;;;;;;3.55;3.25;;;17.20;99.90;;;;;;5053852;28;20040;-70
2022/09/02 02:43:47;;;;;;;4.50;3.08;;;17.20;99.90;;;;;;5050776;28;20408;-69
2022/09/02 02:46:14;;;;;;;5.18;3.70;;;17.20;99.90;;;;;;5051093;28;20028;-70
2022/09/02 02:48:40;;;;;;;4.30;3.17;;;17.20;99.90;;;;;;5049250;28;20036;-70
2022/09/02 02:51:07;;;;;;;3.67;3.03;;;17.10;99.90;;;;;;5032742;28;20064;-69
2022/09/02 02:53:35;;;;;;;3.63;3.17;;;17.20;99.90;;;;;;5044367;28;20016;-69
2022/09/02 02:56:00;;;;;;;3.97;3.38;;;17.20;99.90;;;;;;5051335;28;20040;-69
2022/09/02 02:58:26;;;;;;;6.93;3.78;;;17.20;99.90;;;;;;5052298;28;20024;-70
2022/09/02 03:00:52;;;;;;;5.43;2.92;;;17.20;99.90;;;;;;5045296;28;20366;-70
2022/09/02 03:03:18;;;;;;;3.78;3.33;;;17.10;99.90;;;;;;5027830;28;20408;-69
2022/09/02 03:05:46;;;;;;;5.25;3.08;;;17.10;99.90;;;;;;5048982;28;20478;-70
2022/09/02 03:08:12;;;;;;;4.07;3.67;;;17.10;99.90;;;;;;5052554;28;20022;-70
2022/09/02 03:10:40;;;;;;;5.53;2.90;;;17.10;99.90;;;;;;5050713;28;20033;-69
2022/09/02 03:13:08;;;;;;;4.55;3.65;;;17.10;99.90;;;;;;5046171;28;20021;-70
2022/09/02 03:15:35;;;;;;;6.88;3.38;;;17.10;99.90;;;;;;5046210;28;20037;-71
2022/09/02 03:18:01;;;;;;;6.50;3.00;;;17.00;99.90;;;;;;5050699;28;20107;-70
2022/09/02 03:20:27;;;;;;;7.90;3.42;;;17.10;99.90;;;;;;5048212;28;20108;-69
2022/09/02 03:22:56;;;;;;;5.43;3.03;;;17.10;99.90;;;;;;5048931;28;20079;-70
2022/09/02 03:25:23;;;;;;;6.05;3.13;;;17.10;99.90;;;;;;5048541;28;20027;-69
2022/09/02 03:27:49;;;;;;;5.95;3.28;;;17.10;99.90;;;;;;5051898;28;20017;-69
2022/09/02 03:30:24;;;;;;;5.95;2.90;;;17.10;99.90;;;;;;5046099;28;20026;-70
2022/09/02 03:32:50;;;;;;;5.97;3.30;;;17.10;99.90;;;;;;5051133;28;20024;-70
2022/09/02 03:35:18;;;;;;;5.22;2.95;;;17.10;99.90;;;;;;5049346;28;20131;-69
2022/09/02 03:37:44;;;;;;;5.00;3.28;;;17.10;99.90;;;;;;5048001;28;20021;-69
2022/09/02 03:40:14;;;;;;;5.13;3.10;;;17.10;99.90;;;;;;5050891;28;20136;-70
2022/09/02 03:42:40;;;;;;;6.65;3.40;;;17.10;99.90;;;;;;5046549;28;20057;-70
2022/09/02 03:45:07;;;;;;;6.78;3.13;;;17.10;99.90;;;;;;5043996;28;20056;-70
2022/09/02 03:47:33;;;;;;;5.95;2.80;;;17.10;99.90;;;;;;5048599;28;20103;-72
2022/09/02 03:49:58;;;;;;;3.90;2.78;;;17.10;99.90;;;;;;5049682;28;20517;-69
2022/09/02 03:52:24;;;;;;;4.07;2.75;;;17.10;99.90;;;;;;5048985;28;20025;-70
2022/09/02 03:54:51;;;;;;;4.45;3.22;;;17.10;99.90;;;;;;5041180;28;20099;-71
2022/09/02 03:57:17;;;;;;;4.40;3.20;;;17.10;99.90;;;;;;5047714;28;20363;-70
2022/09/02 03:59:43;;;;;;;6.03;2.72;;;17.10;99.90;;;;;;5050544;28;20079;-70
2022/09/02 04:02:08;;;;;;;7.45;3.20;;;17.10;99.90;;;;;;5045525;28;20029;-71
2022/09/02 04:04:34;;;;;;;8.02;2.55;;;17.10;99.90;;;;;;5046923;28;20021;-69
2022/09/02 04:07:00;;;;;;;4.65;2.65;;;17.10;99.90;;;;;;5047706;28;20025;-70
2022/09/02 04:09:26;;;;;;;3.78;2.70;;;17.20;99.90;;;;;;5049180;28;20025;-71
2022/09/02 04:11:51;;;;;;;5.22;2.55;;;17.10;99.90;;;;;;5048902;28;20048;-70
2022/09/02 04:14:17;;;;;;;4.63;2.80;;;17.20;99.90;;;;;;5047011;28;20029;-69
2022/09/02 04:16:43;;;;;;;4.47;2.55;;;17.10;99.90;;;;;;5042679;28;20040;-70
2022/09/02 04:19:09;;;;;;;8.35;2.92;;;17.10;99.90;;;;;;5048725;28;20060;-70
2022/09/02 04:21:37;;;;;;;5.28;2.50;;;17.10;99.90;;;;;;5046120;28;20080;-69
2022/09/02 04:24:05;;;;;;;5.05;2.47;;;17.00;99.90;;;;;;5032258;28;20377;-73
2022/09/02 04:26:30;;;;;;;3.90;2.60;;;17.10;99.90;;;;;;5048973;28;20032;-73
2022/09/02 04:28:56;;;;;;;6.15;3.13;;;17.10;99.90;;;;;;5049299;28;20021;-75
2022/09/02 04:31:24;;;;;;;5.75;3.00;;;17.10;99.90;;;;;;5044618;28;20474;-74
2022/09/02 04:33:50;;;;;;;6.63;2.88;;;17.10;99.90;;;;;;5039948;28;20048;-74
2022/09/02 04:36:17;;;;;;;2.90;2.63;;;17.10;99.90;;;;;;5044253;28;20029;-74
2022/09/02 04:38:43;;;;;;;7.35;2.47;;;17.20;99.90;;;;;;5042579;28;20017;-75
2022/09/02 04:41:11;;;;;;;5.63;2.28;;;17.10;99.90;;;;;;5047563;28;20031;-73
2022/09/02 04:43:37;;;;;;;5.82;2.95;;;17.10;99.90;;;;;;5041393;28;20026;-74
2022/09/02 04:46:05;;;;;;;5.40;2.90;;;17.10;99.90;;;;;;5044445;28;20100;-74
2022/09/02 04:48:31;;;;;;;3.20;2.35;;;17.20;99.90;;;;;;5049852;28;20029;-74
2022/09/02 04:50:57;;;;;;;5.45;2.53;;;17.20;99.90;;;;;;5047369;28;20067;-71
2022/09/02 04:53:22;;;;;;;3.67;2.10;;;17.30;99.90;;;;;;5050555;28;20440;-74
2022/09/02 04:55:48;;;;;;;5.00;1.88;;;17.30;99.90;;;;;;5030646;28;20036;-74
2022/09/02 04:58:15;;;;;;;5.72;2.47;;;17.30;99.90;;;;;;5047906;28;20471;-74
2022/09/02 05:00:41;;;;;;;9.32;2.75;;;17.30;99.90;;;;;;5041260;28;20074;-74
2022/09/02 05:03:07;;;;;;;6.78;2.30;;;17.30;99.90;;;;;;5047679;28;20112;-74
2022/09/02 05:05:34;;;;;;;6.28;2.78;;;17.40;99.90;;;;;;5046747;28;20571;-74
2022/09/02 05:08:03;;;;;;;2.63;1.95;;;17.40;99.90;;;;;;5049399;28;20048;-74
2022/09/02 05:10:29;;;;;;;9.00;2.42;;;17.50;99.90;;;;;;5044973;28;20163;-74
2022/09/02 05:12:55;;;;;;;5.57;2.58;;;17.50;99.90;;;;;;5044404;28;20049;-75
2022/09/02 05:15:21;;;;;;;6.75;2.47;;;17.50;99.90;;;;;;5043003;28;20469;-74
2022/09/02 05:17:46;;;;;;;5.43;2.28;;;17.60;99.90;;;;;;5056319;28;20021;-74
2022/09/02 05:20:12;;;;;;;4.75;2.55;;;17.60;99.90;;;;;;5050688;28;20025;-70
2022/09/02 05:22:39;;;;;;;6.22;3.00;;;17.60;99.90;;;;;;5050839;28;20370;-73
2022/09/02 05:25:08;;;;;;;6.75;2.70;;;17.60;99.90;;;;;;5050708;28;20032;-68
2022/09/02 05:27:34;;;;;;;7.97;2.63;;;17.70;99.90;;;;;;5053067;28;20047;-72
2022/09/02 05:30:02;;;;;;;4.75;2.33;;;17.70;99.90;;;;;;5050940;28;20076;-69
2022/09/02 05:32:28;;;;;;;7.30;3.05;;;17.80;99.90;;;;;;5035173;28;20033;-74
2022/09/02 05:34:54;;;;;;;8.30;2.40;;;17.70;99.90;;;;;;5053637;28;20029;-74
2022/09/02 05:37:21;;;;;;;8.30;2.58;;;17.80;99.90;;;;;;5050327;28;20025;-71
2022/09/02 05:39:47;;;;;;;7.70;2.88;;;17.70;99.90;;;;;;5047376;28;20033;-69
2022/09/02 05:42:13;;;;;;;7.13;2.50;;;17.70;99.90;;;;;;5053332;28;20040;-69
2022/09/02 05:44:38;;;;;;;3.00;2.00;;;17.70;99.90;;;;;;5024645;28;20032;-69
2022/09/02 05:47:04;;;;;;;7.45;2.63;;;17.80;99.90;;;;;;5046852;28;20071;-69
2022/09/02 05:49:30;;;;;;;7.80;2.65;;;17.80;99.90;;;;;;5051955;28;20028;-69
2022/09/02 05:51:59;;;;;;;8.02;2.45;;;17.90;99.90;;;;;;5054763;28;20466;-70
2022/09/02 05:54:30;;;;;;;7.80;2.53;;;17.90;99.90;;;;;;5047314;28;20076;-75
2022/09/02 05:56:59;;;;;;;5.57;2.38;;;17.90;99.90;;;;;;5052038;28;20044;-74
2022/09/02 05:59:27;;;;;;;7.50;2.88;;;17.90;99.90;;;;;;5050868;28;20433;-75
2022/09/02 06:01:53;;;;;;;4.32;2.45;;;17.90;99.90;;;;;;5048123;28;20071;-74
2022/09/02 06:04:21;;;;;;;7.43;2.55;;;18.00;99.90;;;;;;5049696;28;20029;-75
2022/09/02 06:06:47;;;;;;;4.30;2.25;;;18.00;99.90;;;;;;5049368;28;20492;-75
2022/09/02 06:09:14;;;;;;;9.18;2.63;;;18.00;99.90;;;;;;5043333;28;20035;-75
2022/09/02 06:11:48;;;;;;;8.82;2.85;;;18.10;99.90;;;;;;5044553;28;20029;-75
2022/09/02 06:14:15;;;;;;;6.38;2.40;;;18.10;99.90;;;;;;5046965;28;20084;-75
2022/09/02 06:16:41;;;;;;;8.23;2.40;;;18.20;99.90;;;;;;5043458;28;20044;-75
2022/09/02 06:19:07;;;;;;;9.65;2.67;;;18.20;99.90;;;;;;5051083;28;20462;-74
2022/09/02 06:21:33;;;;;;;9.07;2.78;;;18.20;99.90;;;;;;5045114;28;20029;-70
2022/09/02 06:23:59;;;;;;;5.95;2.53;;;18.30;99.90;;;;;;5041135;28;20037;-75
2022/09/02 06:26:25;;;;;;;9.52;2.90;;;18.20;99.90;;;;;;5047297;28;20025;-75
2022/09/02 06:28:50;;;;;;;4.53;2.67;;;18.20;99.90;;;;;;5048338;28;20031;-73
2022/09/02 06:31:20;;;;;;;5.55;2.95;;;18.20;99.90;;;;;;5043845;28;20474;-69
2022/09/02 06:33:46;;;;;;;4.75;2.22;;;18.30;99.90;;;;;;5050961;28;20450;-71
2022/09/02 06:36:16;;;;;;;10.38;2.75;;;18.30;99.90;;;;;;5046896;28;20037;-71
2022/09/02 06:38:44;;;;;;;6.85;2.25;;;18.30;99.90;;;;;;5044177;28;20056;-69
2022/09/02 06:41:12;;;;;;;6.25;2.55;;;18.40;99.90;;;;;;5044235;28;20112;-70
2022/09/02 06:43:38;;;;;;;9.18;2.67;;;18.40;99.90;;;;;;5048248;28;20471;-69
2022/09/02 06:46:05;;;;;;;11.13;3.17;;;18.40;99.90;;;;;;5049425;28;20029;-70
2022/09/02 06:48:31;;;;;;;6.40;2.65;;;18.50;99.90;;;;;;5053491;28;20055;-71
2022/09/02 06:50:57;;;;;;;7.97;2.95;;;18.50;99.90;;;;;;5039678;28;20041;-71
2022/09/02 06:53:23;;;;;;;4.93;2.45;;;18.60;99.90;;;;;;5029852;28;20025;-71
2022/09/02 06:55:49;;;;;;;8.77;2.50;;;18.50;99.90;;;;;;5045076;28;20041;-70
2022/09/02 06:58:15;;;;;;;6.18;2.50;;;18.60;99.90;;;;;;5054204;28;20017;-70
2022/09/02 07:00:42;;;;;;;7.00;2.40;;;18.50;99.90;;;;;;5047072;28;20029;-71
2022/09/02 07:06:19;;;;;;;6.25;2.30;;;18.60;99.90;;;;;;5045237;28;20040;-71
2022/09/02 07:08:45;;;;;;;5.75;2.70;;;18.70;99.90;;;;;;5038308;28;20102;-70
2022/09/02 07:11:18;;;;;;;7.35;2.33;;;18.70;99.90;;;;;;5029550;28;20545;-69
2022/09/02 07:13:43;;;;;;;;;;;18.80;99.90;;;;;;5041834;28;20017;-70
2022/09/02 07:16:09;;;;;;;7.22;2.65;;;18.70;99.90;;;;;;5046426;28;19919;-70
2022/09/02 07:18:35;;;;;;;9.30;2.92;;;18.80;99.90;;;;;;5044485;28;20021;-72
2022/09/02 07:21:01;;;;;;;5.80;2.33;;;18.90;99.90;;;;;;5047098;28;20454;-71
2022/09/02 07:23:27;;;;;;;8.13;2.63;;;18.80;99.90;;;;;;5046945;28;20481;-72
2022/09/02 07:25:54;;;;;;;5.68;2.72;;;18.90;99.90;;;;;;5045849;28;20032;-71
2022/09/02 07:28:21;;;;;;;2.72;2.10;;;19.00;99.90;;;;;;5052397;28;20163;-73
2022/09/02 07:30:47;;;;;;;8.50;2.63;;;19.00;99.90;;;;;;5045544;28;20477;-71
2022/09/02 07:33:13;;;;;;;9.02;2.22;;;19.00;99.90;;;;;;5046168;28;20388;-71
2022/09/02 07:35:43;;;;;;;8.35;2.53;;;19.00;99.90;;;;;;5050697;28;20036;-71
2022/09/02 07:38:10;;;;;;;6.72;2.60;;;19.10;99.90;;;;;;5044744;28;20025;-71
2022/09/02 07:40:37;;;;;;;8.13;2.30;;;19.10;99.90;;;;;;5028280;28;20036;-71
2022/09/02 07:43:05;;;;;;;6.03;2.33;;;19.30;99.90;;;;;;5047614;28;20029;-70
2022/09/02 07:45:31;;;;;;;5.13;2.33;;;19.30;99.90;;;;;;5053236;28;20136;-72
2022/09/02 07:47:58;;;;;;;4.68;2.53;;;19.40;99.90;;;;;;5050444;28;20009;-71
2022/09/02 07:50:25;;;;;;;3.75;2.33;;;19.50;99.90;;;;;;5047115;28;20026;-71
2022/09/02 07:52:56;;;;;;;5.18;2.60;;;19.50;99.90;;;;;;5043891;28;20441;-71
2022/09/02 07:55:22;;;;;;;10.07;3.42;;;19.60;99.90;;;;;;5048084;28;20029;-71
2022/09/02 07:57:49;;;;;;;5.88;2.15;;;19.60;99.90;;;;;;5050225;28;20079;-70
2022/09/02 08:00:17;;;;;;;6.45;2.22;;;19.70;99.90;;;;;;5046101;28;20044;-71
2022/09/02 08:02:43;;;;;;;5.45;2.53;;;19.70;99.90;;;;;;5038077;28;20022;-70
2022/09/02 08:05:09;;;;;;;7.57;2.75;;;19.80;99.90;;;;;;5030687;28;20051;-71
2022/09/02 08:07:35;;;;;;;5.03;2.55;;;19.80;99.90;;;;;;5049597;28;20014;-72
2022/09/02 08:10:01;;;;;;;6.80;2.30;;;19.90;99.90;;;;;;5044286;28;20099;-71
2022/09/02 08:12:27;;;;;;;12.43;3.35;;;20.00;99.90;;;;;;5048607;28;20369;-74
2022/09/02 08:14:53;;;;;;;9.90;2.78;;;20.00;99.90;;;;;;5051563;28;20477;-73
2022/09/02 08:17:19;;;;;;;5.85;2.45;;;20.10;99.90;;;;;;5045446;28;20088;-72
2022/09/02 08:19:45;;;;;;;6.20;3.03;;;20.20;99.90;;;;;;5047313;28;20036;-72
2022/09/02 08:22:10;;;;;;;8.00;3.13;;;20.30;99.90;;;;;;5050057;28;20087;-75
2022/09/02 08:24:36;;;;;;;6.13;2.42;;;20.30;99.90;;;;;;5049501;28;20539;-75
2022/09/02 08:27:01;;;;;;;7.22;2.88;;;20.30;99.90;;;;;;5038219;28;20024;-71
2022/09/02 08:29:27;;;;;;;11.00;3.03;;;20.40;99.90;;;;;;5038184;28;20040;-76
2022/09/02 08:31:53;;;;;;;9.35;2.90;;;20.60;99.90;;;;;;5053464;28;20032;-75
2022/09/02 08:34:18;;;;;;;12.60;2.92;;;20.80;99.90;;;;;;5049822;28;20020;-73
2022/09/02 08:36:44;;;;;;;5.43;2.67;;;20.90;99.90;;;;;;5022572;28;20031;-70
2022/09/02 08:39:10;;;;;;;8.15;2.95;;;21.00;99.90;;;;;;5046275;28;20057;-72
2022/09/02 08:42:07;;;;;;;7.53;3.15;;;21.10;99.90;;;;;;5046780;28;20428;-72
2022/09/02 08:44:36;;;;;;;7.68;2.95;;;21.20;99.90;;;;;;5050081;28;20021;-71
2022/09/02 08:47:05;;;;;;;7.10;2.58;;;21.30;99.90;;;;;;5050283;28;20041;-74
2022/09/02 08:49:35;;;;;;;10.88;2.97;;;21.40;99.90;;;;;;5047618;28;20024;-74
2022/09/02 08:52:03;;;;;;;6.47;3.33;;;21.60;99.90;;;;;;5048410;28;20026;-73
2022/09/02 08:54:52;;;;;;;8.63;3.00;;;21.70;99.90;;;;;;5044186;28;20025;-74
2022/09/02 08:57:18;;;;;;;10.57;2.95;;;21.90;99.90;;;;;;5029698;28;20038;-73
2022/09/02 08:59:44;;;;;;;10.75;2.33;;;22.00;99.90;;;;;;5050172;28;20435;-75
2022/09/02 09:02:21;;;;;;;7.30;2.75;;;22.20;99.90;;;;;;5045393;28;20048;-71
2022/09/02 09:05:05;;;;;;;7.80;2.97;;;22.30;99.50;;;;;;5043508;28;20021;-71
2022/09/02 09:07:40;;;;;;;5.47;2.75;;;22.50;99.30;;;;;;5043162;28;20037;-72
2022/09/02 09:10:18;;;;;;;8.30;2.80;;;22.50;99.20;;;;;;5044012;28;20054;-72
2022/09/02 09:12:55;;;;;;;10.20;2.40;;;22.60;99.00;;;;;;5027036;28;20028;-71
2022/09/02 09:15:59;;;;;;;10.68;2.67;;;22.80;98.60;;;;;;5043260;28;20041;-73
2022/09/02 09:18:36;;;;;;;12.48;3.25;;;23.00;98.70;;;;;;4947238;29;20039;-71
2022/09/02 09:21:03;;;;;;;5.15;2.97;;;23.10;98.50;;;;;;5030350;28;20037;-73
2022/09/02 09:23:32;;;;;;;6.38;2.55;;;23.10;97.50;;;;;;5045896;28;20397;-72
2022/09/02 09:26:13;;;;;;;5.55;2.50;;;23.30;98.00;;;;;;5044745;28;20091;-73
2022/09/02 09:28:43;;;;;;;10.13;2.35;;;23.30;97.90;;;;;;5042379;28;20044;-72
2022/09/02 09:31:13;;;;;;;5.28;2.40;;;23.40;97.60;;;;;;5045370;28;20021;-74
2022/09/02 09:33:40;;;;;;;10.55;2.67;;;23.60;97.90;;;;;;5051078;28;20072;-71
2022/09/02 09:36:06;;;;;;;9.30;2.80;;;23.60;97.30;;;;;;5048584;28;20051;-72
2022/09/02 09:38:35;;;;;;;4.05;2.58;;;23.80;97.90;;;;;;5046032;28;20013;-74
2022/09/02 09:41:13;;;;;;;6.82;3.15;;;23.90;97.90;;;;;;5040595;28;20060;-73
2022/09/02 09:43:38;;;;;;;4.20;2.20;;;23.90;96.90;;;;;;5037247;28;20456;-72
2022/09/02 09:46:31;;;;;;;3.40;1.98;;;24.00;96.70;;;;;;5046833;28;20029;-71
2022/09/02 09:48:57;;;;;;;6.00;2.25;;;24.00;97.70;;;;;;5044898;28;20029;-71
2022/09/02 09:51:23;;;;;;;9.02;2.00;;;24.10;97.80;;;;;;5030610;28;20028;-71
2022/09/02 09:53:49;;;;;;;6.57;2.33;;;24.10;96.80;;;;;;5045334;28;20049;-73
2022/09/02 09:56:14;;;;;;;10.45;2.30;;;24.40;95.90;;;;;;5051896;28;20083;-71
2022/09/02 09:58:40;;;;;;;5.70;2.65;;;24.40;96.70;;;;;;5046342;28;20018;-71
2022/09/02 10:01:18;;;;;;;7.57;2.28;;;24.50;96.70;;;;;;5045326;28;20029;-71
2022/09/02 10:03:54;;;;;;;6.55;2.50;;;24.60;96.10;;;;;;5033867;28;20025;-71
2022/09/02 10:06:22;;;;;;;6.50;2.30;;;24.70;96.80;;;;;;5034954;28;20029;-72
2022/09/02 10:08:56;;;;;;;3.97;2.67;;;24.90;94.90;;;;;;5053508;28;20104;-71
2022/09/02 10:11:30;;;;;;;7.38;2.30;;;25.00;95.30;;;;;;5053496;28;20025;-72
2022/09/02 10:14:10;;;;;;;9.77;2.60;;;25.20;94.50;;;;;;5050580;28;20110;-71
2022/09/02 10:16:50;;;;;;;4.70;2.05;;;25.20;93.20;;;;;;5052166;28;20114;-71
2022/09/02 10:19:27;;;;;;;30.10;4.57;;;25.40;94.20;;;;;;5046027;28;20072;-72
2022/09/02 10:22:01;;;;;;;5.88;2.60;;;25.40;93.50;;;;;;5049837;28;20021;-72
2022/09/02 10:24:50;;;;;;;23.42;4.15;;;25.60;93.70;;;;;;5056151;28;20134;-71
2022/09/02 10:27:40;;;;;;;43.20;5.70;;;25.70;93.20;;;;;;5051096;28;20021;-75
2022/09/02 10:30:10;;;;;;;5.05;2.35;;;25.80;91.50;;;;;;4981184;28;20484;-76
2022/09/02 10:32:53;;;;;;;5.70;2.35;;;26.00;92.60;;;;;;5050540;28;20028;-75
2022/09/02 10:35:47;;;;;;;3.15;2.00;;;26.20;94.00;;;;;;5044782;28;20029;-74
2022/09/02 10:38:32;;;;;;;7.28;2.35;;;26.30;92.40;;;;;;5048442;28;20112;-73
2022/09/02 10:41:24;;;;;;;2.10;1.90;;;26.40;92.40;;;;;;5028970;28;20540;-76
2022/09/02 10:44:26;;;;;;;4.03;1.65;;;26.60;92.50;;;;;;5040240;28;20040;-75
2022/09/02 10:47:03;;;;;;;5.05;1.83;;;26.70;90.90;;;;;;5038484;28;20128;-72
2022/09/02 10:50:39;;;;;;;2.53;2.00;;;26.70;92.00;;;;;;5027318;28;20079;-76
2022/09/02 10:53:26;;;;;;;3.78;2.00;;;26.90;93.00;;;;;;4901284;29;20063;-74
2022/09/02 10:56:00;;;;;;;7.50;2.10;;;27.10;90.90;;;;;;5039083;28;20049;-74
2022/09/02 10:58:35;;;;;;;2.08;1.80;;;27.00;89.00;;;;;;5041405;28;20073;-74
2022/09/02 11:01:01;;;;;;;2.60;1.65;;;26.90;87.10;;;;;;5050504;28;20036;-72
2022/09/02 11:03:54;;;;;;;4.88;2.17;;;27.10;90.80;;;;;;5051767;28;20032;-71
2022/09/02 11:06:23;;;;;;;;;;;27.10;90.00;;;;;;5047778;28;20021;-75
2022/09/02 11:08:55;;;;;;;2.38;1.80;;;27.20;86.40;;;;;;5045840;28;19913;-71
2022/09/02 11:11:41;;;;;;;4.13;2.03;;;27.30;86.00;;;;;;5043408;28;20091;-71
2022/09/02 11:14:33;;;;;;;3.60;1.70;;;27.20;83.80;;;;;;5045859;28;20036;-73
2022/09/02 11:17:05;;;;;;;1.92;1.60;;;27.20;90.60;;;;;;5041053;28;20059;-75
2022/09/02 11:19:38;;;;;;;1.92;1.60;;;27.40;86.90;;;;;;5049247;28;20032;-75
2022/09/02 11:22:34;;;;;;;3.65;2.08;;;27.50;86.00;;;;;;5042274;28;20025;-75
2022/09/02 11:25:07;;;;;;;1.92;1.50;;;27.70;83.90;;;;;;5027726;28;20382;-75
2022/09/02 11:27:38;;;;;;;3.20;1.50;;;27.80;90.00;;;;;;5039583;28;20108;-74
2022/09/02 11:30:26;;;;;;;3.00;1.43;;;27.80;80.50;;;;;;5045095;28;20033;-74
2022/09/02 11:33:03;;;;;;;5.47;1.73;;;27.70;81.60;;;;;;5042969;28;20366;-75
2022/09/02 11:35:35;;;;;;;4.60;1.80;;;27.60;80.40;;;;;;5050876;28;20071;-75
2022/09/02 11:38:21;;;;;;;4.15;1.70;;;27.50;80.30;;;;;;5048074;28;20112;-74
2022/09/02 11:40:47;;;;;;;2.10;1.80;;;27.50;78.20;;;;;;5028912;28;20028;-75
2022/09/02 11:43:34;;;;;;;2.30;1.50;;;27.50;79.80;;;;;;5050041;28;20087;-74
2022/09/02 11:46:13;;;;;;;1.75;1.63;;;27.20;74.70;;;;;;5044951;28;20056;-74
2022/09/02 11:48:56;;;;;;;1.60;1.50;;;27.50;77.30;;;;;;5037878;28;20029;-74
2022/09/02 11:51:59;;;;;;;2.97;1.33;;;27.70;78.60;;;;;;5044625;28;20155;-75
2022/09/02 11:54:26;;;;;;;;;;;27.80;79.00;;;;;;5038352;28;20031;-75
2022/09/02 11:56:59;;;;;;;5.55;1.55;;;27.60;78.50;;;;;;5031707;28;20365;-73
2022/09/02 11:59:50;;;;;;;4.13;1.45;;;27.70;78.70;;;;;;5042531;28;20052;-74
2022/09/02 12:02:43;;;;;;;2.90;1.83;;;28.00;77.60;;;;;;5049316;28;20037;-75
2022/09/02 12:05:28;;;;;;;;;;;28.10;79.30;;;;;;5046099;28;20033;-74
2022/09/02 12:08:17;;;;;;;1.85;1.30;;;28.00;80.20;;;;;;5046950;28;19908;-74
2022/09/02 12:10:43;;;;;;;2.58;1.60;;;28.40;79.80;;;;;;5044732;28;20067;-74
2022/09/02 12:13:30;;;;;;;2.47;1.60;;;28.40;75.10;;;;;;5051411;28;20507;-75
2022/09/02 12:16:28;;;;;;;3.58;1.33;;;28.40;76.70;;;;;;5009673;28;20113;-75
2022/09/02 12:18:54;;;;;;;4.82;1.67;;;28.30;80.40;;;;;;4995906;28;20041;-72
2022/09/02 12:21:21;;;;;;;1.65;1.55;;;28.50;73.60;;;;;;5028793;28;20032;-72
2022/09/02 12:23:56;;;;;;;4.07;1.60;;;28.60;73.90;;;;;;5049131;28;20049;-72
2022/09/02 12:26:47;;;;;;;5.40;1.45;;;28.50;73.60;;;;;;5045612;28;20032;-72
2022/09/02 12:29:19;;;;;;;3.40;1.42;;;28.50;74.60;;;;;;5025701;28;20037;-72
2022/09/02 12:31:49;;;;;;;1.73;1.58;;;28.50;78.70;;;;;;5046938;28;20033;-72
2022/09/02 12:34:45;;;;;;;3.38;1.40;;;28.50;76.20;;;;;;5030215;28;20501;-72
2022/09/02 12:37:54;;;;;;;1.80;1.70;;;28.50;74.60;;;;;;5048530;28;20055;-69
2022/09/02 12:40:31;;;;;;;3.10;1.42;;;28.50;74.00;;;;;;5046320;28;20108;-70
2022/09/02 12:43:02;;;;;;;3.28;1.35;;;28.80;78.10;;;;;;5041594;28;20049;-70
2022/09/02 12:45:31;;;;;;;1.80;1.65;;;29.00;77.40;;;;;;5042799;28;20112;-69
2022/09/02 12:48:11;;;;;;;4.43;1.80;;;28.80;74.60;;;;;;5042626;28;20094;-69
2022/09/02 12:50:42;;;;;;;4.00;1.20;;;28.70;74.40;;;;;;5047841;28;20013;-70
2022/09/02 12:53:30;;;;;;;8.17;1.70;;;28.70;76.20;;;;;;5043745;28;20072;-69
2022/09/02 12:56:12;;;;;;;1.88;1.67;;;28.70;74.70;;;;;;5046630;28;20481;-71
2022/09/02 12:58:55;;;;;;;3.67;1.60;;;28.60;76.80;;;;;;5043099;28;20068;-70
2022/09/02 13:01:45;;;;;;;2.40;1.50;;;28.70;77.20;;;;;;5042258;28;20482;-70
2022/09/02 13:04:46;;;;;;;2.03;1.80;;;28.70;75.60;;;;;;5041322;28;20032;-72
2022/09/02 13:07:39;;;;;;;2.60;1.70;;;28.60;77.10;;;;;;5005950;28;20053;-70
2022/09/02 13:10:43;;;;;;;3.08;1.63;;;28.70;75.20;;;;;;5044546;28;20069;-77